createdAt,value
2023-05-22T00:00:57.087Z,987.26
2023-05-22T00:01:58.970Z,987.3
2023-05-22T00:03:00.899Z,987.28
2023-05-22T00:04:02.297Z,987.28
2023-05-22T00:05:04.092Z,987.27
2023-05-22T00:06:05.745Z,987.24
2023-05-22T00:07:07.512Z,987.23
2023-05-22T00:08:09.239Z,987.3
2023-05-22T00:09:11.005Z,987.3
2023-05-22T00:10:12.700Z,987.28
2023-05-22T00:11:14.450Z,987.31
2023-05-22T00:12:16.163Z,987.27
2023-05-22T00:13:17.906Z,987.26
2023-05-22T00:14:19.638Z,987.25
2023-05-22T00:15:21.384Z,987.27
2023-05-22T00:16:23.346Z,987.26
2023-05-22T00:17:24.950Z,987.25
2023-05-22T00:18:26.616Z,987.23
2023-05-22T00:19:28.339Z,987.2
2023-05-22T00:20:30.118Z,987.23
2023-05-22T00:21:31.784Z,987.22
2023-05-22T00:22:33.508Z,987.19
2023-05-22T00:23:35.236Z,987.19
2023-05-22T00:24:36.974Z,987.16
2023-05-22T00:25:38.710Z,987.19
2023-05-22T00:26:40.440Z,987.18
2023-05-22T00:27:42.171Z,987.19
2023-05-22T00:28:43.914Z,987.16
2023-05-22T00:29:45.860Z,987.15
2023-05-22T00:30:47.446Z,987.14
2023-05-22T00:31:49.123Z,987.13
2023-05-22T00:32:50.945Z,987.17
2023-05-22T00:33:52.618Z,987.14
2023-05-22T00:34:54.309Z,987.11
2023-05-22T00:35:56.057Z,987.12
2023-05-22T00:36:57.775Z,987.1
2023-05-22T00:37:59.548Z,987.1
2023-05-22T00:39:01.229Z,987.13
2023-05-22T00:40:02.985Z,987.12
2023-05-22T00:41:04.712Z,987.14
2023-05-22T00:42:06.564Z,987.05
2023-05-22T00:43:08.179Z,987.1
2023-05-22T00:44:09.896Z,987.09
2023-05-22T00:45:11.669Z,987.07
2023-05-22T00:46:13.426Z,987.14
2023-05-22T00:47:15.114Z,987.13
2023-05-22T00:48:16.856Z,987.1
2023-05-22T00:49:18.620Z,987.07
2023-05-22T00:50:20.335Z,987.09
2023-05-22T00:51:22.073Z,987.11
2023-05-22T00:52:23.790Z,987.08
2023-05-22T00:53:25.553Z,987.12
2023-05-22T00:54:27.259Z,987.08
2023-05-22T00:55:28.987Z,987.11
2023-05-22T00:56:30.719Z,987.12
2023-05-22T00:57:32.474Z,987.14
2023-05-22T00:58:34.200Z,987.11
2023-05-22T00:59:35.987Z,987.17
2023-05-22T01:00:37.957Z,987.16
2023-05-22T01:01:39.382Z,987.14
2023-05-22T01:02:41.210Z,987.12
2023-05-22T01:03:42.899Z,987.12
2023-05-22T01:04:44.631Z,987.12
2023-05-22T01:05:46.362Z,987.1
2023-05-22T01:06:48.068Z,987.1
2023-05-22T01:07:49.762Z,987.11
2023-05-22T01:08:51.517Z,987.11
2023-05-22T01:09:53.359Z,987.12
2023-05-22T01:10:55.026Z,987.15
2023-05-22T01:11:56.965Z,987.1
2023-05-22T01:12:58.504Z,987.13
2023-05-22T01:14:00.173Z,987.11
2023-05-22T01:15:01.937Z,987.11
2023-05-22T01:16:03.715Z,987.13
2023-05-22T01:17:05.411Z,987.17
2023-05-22T01:18:07.352Z,987.14
2023-05-22T01:19:08.933Z,987.18
2023-05-22T01:20:10.629Z,987.19
2023-05-22T01:21:12.345Z,987.19
2023-05-22T01:22:14.079Z,987.18
2023-05-22T01:23:15.807Z,987.16
2023-05-22T01:24:17.546Z,987.16
2023-05-22T01:25:19.289Z,987.16
2023-05-22T01:26:20.996Z,987.22
2023-05-22T01:27:22.768Z,987.18
2023-05-22T01:28:24.479Z,987.15
2023-05-22T01:29:26.215Z,987.15
2023-05-22T01:30:27.942Z,987.14
2023-05-22T01:31:29.662Z,987.17
2023-05-22T01:32:31.523Z,987.17
2023-05-22T01:33:33.281Z,987.19
2023-05-22T01:34:34.879Z,987.2
2023-05-22T01:35:36.619Z,987.19
2023-05-22T01:36:38.389Z,987.2
2023-05-22T01:37:40.099Z,987.24
2023-05-22T01:38:41.813Z,987.25
2023-05-22T01:39:43.557Z,987.24
2023-05-22T01:40:45.315Z,987.26
2023-05-22T01:41:47.041Z,987.26
2023-05-22T01:42:48.770Z,987.28
2023-05-22T01:43:50.500Z,987.21
2023-05-22T01:44:52.230Z,987.26
2023-05-22T01:45:54.026Z,987.25
2023-05-22T01:46:55.689Z,987.21
2023-05-22T01:47:57.517Z,987.15
2023-05-22T01:48:59.180Z,987.2
2023-05-22T01:50:00.903Z,987.14
2023-05-22T01:51:02.656Z,987.17
2023-05-22T01:52:04.404Z,987.16
2023-05-22T01:53:06.108Z,987.17
2023-05-22T01:54:07.853Z,987.16
2023-05-22T01:55:09.649Z,987.2
2023-05-22T01:56:11.294Z,987.15
2023-05-22T01:57:13.025Z,987.17
2023-05-22T01:58:14.771Z,987.12
2023-05-22T01:59:16.496Z,987.15
2023-05-22T02:00:18.234Z,987.1
2023-05-22T02:01:20.038Z,987.14
2023-05-22T02:02:21.882Z,987.16
2023-05-22T02:03:23.628Z,987.13
2023-05-22T02:04:25.255Z,987.11
2023-05-22T02:05:26.962Z,987.11
2023-05-22T02:06:28.810Z,987.14
2023-05-22T02:07:30.380Z,987.15
2023-05-22T02:08:32.099Z,987.13
2023-05-22T02:09:34.103Z,987.14
2023-05-22T02:10:35.574Z,987.17
2023-05-22T02:11:37.320Z,987.17
2023-05-22T02:12:39.044Z,987.2
2023-05-22T02:13:40.735Z,987.16
2023-05-22T02:14:42.526Z,987.2
2023-05-22T02:15:44.311Z,987.21
2023-05-22T02:16:45.973Z,987.19
2023-05-22T02:17:47.758Z,987.2
2023-05-22T02:18:49.562Z,987.2
2023-05-22T02:19:51.187Z,987.15
2023-05-22T02:20:52.928Z,987.15
2023-05-22T02:21:54.658Z,987.21
2023-05-22T02:22:56.457Z,987.16
2023-05-22T02:23:58.167Z,987.16
2023-05-22T02:24:59.856Z,987.14
2023-05-22T02:26:01.584Z,987.15
2023-05-22T02:27:03.381Z,987.14
2023-05-22T02:28:05.132Z,987.11
2023-05-22T02:29:06.877Z,987.17
2023-05-22T02:30:08.536Z,987.15
2023-05-22T02:31:10.330Z,987.15
2023-05-22T02:32:12.009Z,987.15
2023-05-22T02:33:13.725Z,987.15
2023-05-22T02:34:15.531Z,987.15
2023-05-22T02:35:17.201Z,987.14
2023-05-22T02:36:18.966Z,987.15
2023-05-22T02:37:20.702Z,987.16
2023-05-22T02:38:22.419Z,987.15
2023-05-22T02:39:24.140Z,987.1
2023-05-22T02:40:25.854Z,987.14
2023-05-22T02:41:27.615Z,987.14
2023-05-22T02:42:29.396Z,987.1
2023-05-22T02:43:31.054Z,987.12
2023-05-22T02:44:32.823Z,987.16
2023-05-22T02:45:34.564Z,987.13
2023-05-22T02:46:36.316Z,987.14
2023-05-22T02:47:38.093Z,987.14
2023-05-22T02:48:39.736Z,987.11
2023-05-22T02:49:41.479Z,987.1
2023-05-22T02:50:43.212Z,987.05
2023-05-22T02:51:44.942Z,987.05
2023-05-22T02:52:46.672Z,987.08
2023-05-22T02:53:48.451Z,987.07
2023-05-22T02:54:50.140Z,987.04
2023-05-22T02:55:51.868Z,987.02
2023-05-22T02:56:53.607Z,987.04
2023-05-22T02:57:55.340Z,987.03
2023-05-22T02:58:57.072Z,987.01
2023-05-22T02:59:58.858Z,987.04
2023-05-22T03:01:00.648Z,987.05
2023-05-22T03:02:02.409Z,987.06
2023-05-22T03:03:04.074Z,987.07
2023-05-22T03:04:05.908Z,987.03
2023-05-22T03:05:07.514Z,987.08
2023-05-22T03:06:09.205Z,987.08
2023-05-22T03:07:10.958Z,987.05
2023-05-22T03:08:12.670Z,987.05
2023-05-22T03:09:14.425Z,987.06
2023-05-22T03:10:16.186Z,987.05
2023-05-22T03:11:17.889Z,987.04
2023-05-22T03:12:19.599Z,987.04
2023-05-22T03:13:21.334Z,987.03
2023-05-22T03:14:23.085Z,987.07
2023-05-22T03:15:24.808Z,987.11
2023-05-22T03:16:26.852Z,987.07
2023-05-22T03:17:28.948Z,987.1
2023-05-22T03:18:30.045Z,987.09
2023-05-22T03:19:31.980Z,987.11
2023-05-22T03:20:33.493Z,987.14
2023-05-22T03:21:35.227Z,987.09
2023-05-22T03:22:36.964Z,987.12
2023-05-22T03:23:38.680Z,987.11
2023-05-22T03:24:40.442Z,987.14
2023-05-22T03:25:42.160Z,987.1
2023-05-22T03:26:44.115Z,987.12
2023-05-22T03:27:45.598Z,987.12
2023-05-22T03:28:47.430Z,987.01
2023-05-22T03:29:49.107Z,987.11
2023-05-22T03:30:50.837Z,987.15
2023-05-22T03:31:52.560Z,987.12
2023-05-22T03:32:54.405Z,987.1
2023-05-22T03:33:56.127Z,987.09
2023-05-22T03:34:57.790Z,987.1
2023-05-22T03:35:59.497Z,987.09
2023-05-22T03:37:01.260Z,987.04
2023-05-22T03:38:02.987Z,987.09
2023-05-22T03:39:04.741Z,987.1
2023-05-22T03:40:06.437Z,987.09
2023-05-22T03:41:08.237Z,987.08
2023-05-22T03:42:09.926Z,987.11
2023-05-22T03:43:11.642Z,987.06
2023-05-22T03:44:13.383Z,987.13
2023-05-22T03:45:15.266Z,987.15
2023-05-22T03:46:16.884Z,987.08
2023-05-22T03:47:18.595Z,987.09
2023-05-22T03:48:20.282Z,987.11
2023-05-22T03:49:22.022Z,987.14
2023-05-22T03:50:23.754Z,987.15
2023-05-22T03:51:25.500Z,987.13
2023-05-22T03:52:27.236Z,987.13
2023-05-22T03:53:28.971Z,987.12
2023-05-22T03:54:30.708Z,987.13
2023-05-22T03:55:32.437Z,987.14
2023-05-22T03:56:34.203Z,987.14
2023-05-22T03:57:35.940Z,987.08
2023-05-22T03:58:37.646Z,987.11
2023-05-22T03:59:39.360Z,987.11
2023-05-22T04:00:41.146Z,987.1
2023-05-22T04:01:42.841Z,987.1
2023-05-22T04:02:44.747Z,987.1
2023-05-22T04:03:46.344Z,987.11
2023-05-22T04:04:48.225Z,987.13
2023-05-22T04:05:49.780Z,987.14
2023-05-22T04:06:51.510Z,987.07
2023-05-22T04:07:53.255Z,987.12
2023-05-22T04:08:54.998Z,987.11
2023-05-22T04:09:56.756Z,987.08
2023-05-22T04:10:58.429Z,987.1
2023-05-22T04:12:00.187Z,987.14
2023-05-22T04:13:01.931Z,987.14
2023-05-22T04:14:03.669Z,987.13
2023-05-22T04:15:05.479Z,987.17
2023-05-22T04:16:07.197Z,987.16
2023-05-22T04:17:08.863Z,987.17
2023-05-22T04:18:10.640Z,987.16
2023-05-22T04:19:12.357Z,987.17
2023-05-22T04:20:14.056Z,987.19
2023-05-22T04:21:15.762Z,987.24
2023-05-22T04:22:17.515Z,987.25
2023-05-22T04:23:19.279Z,987.19
2023-05-22T04:24:20.992Z,987.21
2023-05-22T04:25:22.724Z,987.22
2023-05-22T04:26:24.445Z,987.23
2023-05-22T04:27:26.202Z,987.25
2023-05-22T04:28:27.923Z,987.25
2023-05-22T04:29:29.724Z,987.24
2023-05-22T04:30:31.398Z,987.23
2023-05-22T04:31:33.224Z,987.28
2023-05-22T04:32:34.913Z,987.28
2023-05-22T04:33:36.601Z,987.3
2023-05-22T04:34:38.601Z,987.36
2023-05-22T04:35:40.276Z,987.33
2023-05-22T04:36:42.009Z,987.38
2023-05-22T04:37:43.535Z,987.35
2023-05-22T04:38:45.295Z,987.39
2023-05-22T04:39:47.013Z,987.36
2023-05-22T04:40:48.824Z,987.38
2023-05-22T04:41:50.501Z,987.42
2023-05-22T04:42:52.205Z,987.41
2023-05-22T04:43:53.944Z,987.4
2023-05-22T04:44:55.640Z,987.36
2023-05-22T04:45:57.432Z,987.46
2023-05-22T04:46:59.393Z,987.48
2023-05-22T04:48:00.911Z,987.46
2023-05-22T04:49:02.632Z,987.5
2023-05-22T04:50:04.353Z,987.47
2023-05-22T04:51:06.090Z,987.51
2023-05-22T04:52:07.796Z,987.51
2023-05-22T04:53:09.703Z,987.52
2023-05-22T04:54:11.323Z,987.53
2023-05-22T04:55:13.018Z,987.6
2023-05-22T04:56:18.655Z,987.6
2023-05-22T04:57:16.481Z,987.52
2023-05-22T04:58:18.230Z,987.6
2023-05-22T04:59:19.961Z,987.56
2023-05-22T05:00:21.683Z,987.6
2023-05-22T05:01:23.460Z,987.57
2023-05-22T05:02:25.300Z,987.57
2023-05-22T05:03:26.925Z,987.57
2023-05-22T05:04:28.645Z,987.57
2023-05-22T05:05:30.392Z,987.59
2023-05-22T05:06:32.077Z,987.63
2023-05-22T05:07:33.842Z,987.57
2023-05-22T05:08:35.566Z,987.6
2023-05-22T05:09:37.288Z,987.54
2023-05-22T05:10:39.140Z,987.55
2023-05-22T05:11:40.757Z,987.56
2023-05-22T05:12:42.489Z,987.54
2023-05-22T05:13:44.368Z,987.57
2023-05-22T05:14:45.943Z,987.57
2023-05-22T05:15:47.698Z,987.58
2023-05-22T05:16:49.459Z,987.53
2023-05-22T05:17:51.268Z,987.51
2023-05-22T05:18:52.894Z,987.55
2023-05-22T05:19:54.612Z,987.57
2023-05-22T05:20:56.331Z,987.53
2023-05-22T05:21:58.077Z,987.54
2023-05-22T05:22:59.829Z,987.51
2023-05-22T05:24:01.764Z,987.49
2023-05-22T05:25:03.298Z,987.53
2023-05-22T05:26:05.022Z,987.51
2023-05-22T05:27:06.786Z,987.52
2023-05-22T05:28:08.623Z,987.54
2023-05-22T05:29:10.232Z,987.49
2023-05-22T05:30:11.975Z,987.51
2023-05-22T05:31:13.695Z,987.49
2023-05-22T05:32:15.481Z,987.45
2023-05-22T05:33:17.169Z,987.49
2023-05-22T05:34:18.884Z,987.46
2023-05-22T05:35:20.622Z,987.49
2023-05-22T05:36:22.366Z,987.49
2023-05-22T05:37:24.212Z,987.43
2023-05-22T05:38:25.904Z,987.49
2023-05-22T05:39:27.593Z,987.46
2023-05-22T05:40:29.301Z,987.51
2023-05-22T05:41:31.047Z,987.5
2023-05-22T05:42:32.765Z,987.52
2023-05-22T05:43:34.499Z,987.57
2023-05-22T05:44:36.232Z,987.58
2023-05-22T05:45:37.969Z,987.59
2023-05-22T05:46:39.775Z,987.61
2023-05-22T05:47:41.591Z,987.59
2023-05-22T05:48:43.153Z,987.57
2023-05-22T05:49:44.907Z,987.62
2023-05-22T05:50:46.642Z,987.58
2023-05-22T05:51:48.389Z,987.54
2023-05-22T05:52:50.109Z,987.58
2023-05-22T05:53:51.874Z,987.56
2023-05-22T05:54:53.588Z,987.56
2023-05-22T05:55:55.310Z,987.56
2023-05-22T05:56:57.065Z,987.58
2023-05-22T05:57:58.782Z,987.58
2023-05-22T05:59:00.532Z,987.51
2023-05-22T06:00:02.248Z,987.59
2023-05-22T06:01:03.999Z,987.61
2023-05-22T06:02:05.708Z,987.59
2023-05-22T06:03:07.690Z,987.61
2023-05-22T06:04:09.207Z,987.65
2023-05-22T06:05:10.985Z,987.64
2023-05-22T06:06:12.760Z,987.66
2023-05-22T06:07:14.406Z,987.69
2023-05-22T06:08:16.170Z,987.62
2023-05-22T06:09:17.960Z,987.73
2023-05-22T06:10:19.600Z,987.67
2023-05-22T06:11:21.327Z,987.7
2023-05-22T06:12:23.064Z,987.68
2023-05-22T06:13:24.816Z,987.69
2023-05-22T06:14:26.422Z,987.7
2023-05-22T06:15:28.150Z,987.7
2023-05-22T06:16:30.075Z,987.73
2023-05-22T06:17:31.665Z,987.71
2023-05-22T06:18:33.366Z,987.67
2023-05-22T06:19:35.192Z,987.71
2023-05-22T06:20:37.043Z,987.66
2023-05-22T06:21:38.549Z,987.69
2023-05-22T06:22:40.255Z,987.65
2023-05-22T06:23:42.017Z,987.69
2023-05-22T06:24:43.821Z,987.67
2023-05-22T06:25:45.632Z,987.67
2023-05-22T06:26:47.222Z,987.6
2023-05-22T06:27:48.950Z,987.61
2023-05-22T06:28:50.680Z,987.66
2023-05-22T06:29:52.460Z,987.63
2023-05-22T06:30:54.197Z,987.64
2023-05-22T06:31:55.925Z,987.7
2023-05-22T06:32:57.772Z,987.66
2023-05-22T06:33:59.533Z,987.65
2023-05-22T06:35:01.088Z,987.66
2023-05-22T06:36:02.880Z,987.69
2023-05-22T06:37:04.570Z,987.68
2023-05-22T06:38:06.280Z,987.74
2023-05-22T06:39:08.028Z,987.69
2023-05-22T06:40:09.773Z,987.72
2023-05-22T06:41:11.591Z,987.67
2023-05-22T06:42:13.285Z,987.69
2023-05-22T06:43:14.964Z,987.7
2023-05-22T06:44:16.694Z,987.76
2023-05-22T06:45:18.451Z,987.77
2023-05-22T06:46:20.241Z,987.76
2023-05-22T06:47:21.872Z,987.79
2023-05-22T06:48:23.659Z,987.76
2023-05-22T06:49:25.473Z,987.77
2023-05-22T06:50:27.153Z,987.77
2023-05-22T06:51:29.092Z,987.74
2023-05-22T06:52:31.742Z,987.79
2023-05-22T06:53:32.338Z,987.77
2023-05-22T06:54:35.198Z,987.81
2023-05-22T06:55:35.795Z,987.81
2023-05-22T06:56:37.580Z,987.78
2023-05-22T06:57:39.271Z,987.81
2023-05-22T06:58:40.983Z,987.81
2023-05-22T06:59:43.900Z,987.85
2023-05-22T07:00:44.603Z,987.82
2023-05-22T07:01:47.779Z,987.83
2023-05-22T07:02:48.013Z,987.83
2023-05-22T07:03:49.772Z,987.83
2023-05-22T07:04:51.474Z,987.86
2023-05-22T07:05:53.276Z,987.85
2023-05-22T07:06:54.938Z,987.88
2023-05-22T07:07:58.198Z,987.87
2023-05-22T07:08:58.558Z,987.84
2023-05-22T07:10:03.111Z,987.82
2023-05-22T07:11:04.820Z,987.86
2023-05-22T07:12:06.727Z,987.79
2023-05-22T07:13:08.313Z,987.82
2023-05-22T07:14:09.997Z,987.8
2023-05-22T07:15:13.106Z,987.84
2023-05-22T07:16:13.656Z,987.76
2023-05-22T07:17:15.231Z,987.74
2023-05-22T07:18:16.934Z,987.76
2023-05-22T07:19:18.061Z,987.78
2023-05-22T07:20:20.398Z,987.77
2023-05-22T07:21:22.143Z,987.77
2023-05-22T07:22:23.868Z,987.81
2023-05-22T07:23:26.421Z,987.78
2023-05-22T07:24:27.393Z,987.8
2023-05-22T07:25:29.108Z,987.82
2023-05-22T07:26:30.810Z,987.81
2023-05-22T07:27:32.644Z,987.86
2023-05-22T07:28:34.290Z,987.84
2023-05-22T07:29:36.031Z,987.87
2023-05-22T07:30:38.091Z,987.84
2023-05-22T07:31:39.512Z,987.93
2023-05-22T07:32:41.304Z,987.86
2023-05-22T07:33:44.159Z,987.81
2023-05-22T07:34:44.720Z,987.8
2023-05-22T07:35:46.423Z,987.84
2023-05-22T07:37:04.854Z,987.82
2023-05-22T07:38:05.392Z,987.8
2023-05-22T07:39:07.081Z,987.82
2023-05-22T07:40:10.343Z,987.82
2023-05-22T07:41:11.903Z,987.87
2023-05-22T07:42:12.293Z,987.85
2023-05-22T07:43:14.018Z,987.82
2023-05-22T07:44:15.795Z,987.82
2023-05-22T07:45:17.458Z,987.83
2023-05-22T07:46:19.222Z,987.84
2023-05-22T07:47:21.068Z,987.82
2023-05-22T07:48:22.679Z,987.85
2023-05-22T07:49:25.471Z,987.84
2023-05-22T07:50:31.374Z,987.82
2023-05-22T07:51:33.021Z,987.82
2023-05-22T07:52:34.821Z,987.86
2023-05-22T07:53:36.524Z,987.83
2023-05-22T07:54:40.285Z,987.85
2023-05-22T07:55:40.173Z,987.82
2023-05-22T07:56:41.772Z,987.86
2023-05-22T07:57:44.987Z,987.86
2023-05-22T07:59:26.502Z,987.85
2023-05-22T08:00:53.323Z,987.86
2023-05-22T08:01:58.720Z,987.84
2023-05-22T08:03:01.122Z,987.87
2023-05-22T08:04:02.622Z,987.9
2023-05-22T08:05:32.855Z,987.9
2023-05-22T08:06:33.151Z,987.89
2023-05-22T08:07:33.938Z,987.92
2023-05-22T08:08:58.751Z,987.92
2023-05-22T08:10:03.066Z,987.9
2023-05-22T08:11:04.827Z,987.91
2023-05-22T08:12:16.897Z,987.9
2023-05-22T08:13:19.887Z,987.93
2023-05-22T08:14:38.629Z,987.95
2023-05-22T08:15:43.176Z,987.95
2023-05-22T08:16:45.148Z,987.95
2023-05-22T08:17:48.302Z,987.96
2023-05-22T08:19:03.978Z,987.94
2023-05-22T08:20:04.804Z,987.99
2023-05-22T08:21:08.472Z,987.94
2023-05-22T08:22:09.042Z,987.94
2023-05-22T08:23:10.760Z,987.98
2023-05-22T08:24:11.774Z,987.97
2023-05-22T08:25:14.235Z,987.98
2023-05-22T08:26:15.925Z,987.93
2023-05-22T08:27:26.743Z,987.98
2023-05-22T08:28:30.918Z,987.96
2023-05-22T08:29:56.547Z,987.98
2023-05-22T08:31:03.588Z,987.94
2023-05-22T08:32:09.526Z,987.98
2023-05-22T08:33:17.878Z,987.96
2023-05-22T08:34:20.865Z,987.96
2023-05-22T08:35:21.917Z,987.99
2023-05-22T08:36:22.307Z,987.95
2023-05-22T08:37:28.530Z,987.93
2023-05-22T08:38:34.312Z,987.97
2023-05-22T08:39:40.061Z,987.96
2023-05-22T08:40:44.588Z,987.98
2023-05-22T08:41:55.042Z,987.97
2023-05-22T08:42:55.379Z,987.96
2023-05-22T08:44:13.923Z,988.01
2023-05-22T08:46:03.729Z,987.97
2023-05-22T08:47:08.262Z,987.96
2023-05-22T08:48:11.556Z,987.98
2023-05-22T08:49:12.330Z,987.94
2023-05-22T08:50:25.387Z,987.9
2023-05-22T08:51:32.780Z,987.93
2023-05-22T08:52:35.052Z,987.89
2023-05-22T08:54:29.276Z,987.87
2023-05-22T08:55:51.349Z,987.92
2023-05-22T08:57:27.109Z,987.86
2023-05-22T08:58:34.620Z,987.85
2023-05-22T08:59:44.543Z,987.88
2023-05-22T09:00:49.886Z,987.83
2023-05-22T09:01:53.507Z,987.89
2023-05-22T09:03:00.023Z,987.88
2023-05-22T09:04:08.102Z,987.93
2023-05-22T09:05:15.537Z,987.91
2023-05-22T09:06:37.815Z,987.94
2023-05-22T09:07:39.466Z,987.92
2023-05-22T09:08:40.052Z,987.96
2023-05-22T09:09:43.082Z,987.96
2023-05-22T09:10:48.147Z,987.94
2023-05-22T09:11:48.480Z,987.94
2023-05-22T09:13:06.938Z,987.96
2023-05-22T09:14:38.443Z,987.95
2023-05-22T09:16:19.544Z,987.95
2023-05-22T09:18:17.757Z,987.97
2023-05-22T09:19:20.361Z,987.93
2023-05-22T09:20:43.567Z,987.92
2023-05-22T09:22:04.580Z,987.98
2023-05-22T09:23:15.702Z,987.95
2023-05-22T09:24:18.190Z,987.97
2023-05-22T09:25:28.078Z,987.94
2023-05-22T09:26:52.250Z,987.95
2023-05-22T09:28:06.798Z,987.96
2023-05-22T09:29:13.820Z,987.95
2023-05-22T09:30:38.121Z,987.96
2023-05-22T09:32:01.101Z,987.94
2023-05-22T09:33:11.635Z,987.95
2023-05-22T09:34:40.425Z,987.97
2023-05-22T09:35:42.300Z,987.95
2023-05-22T09:36:43.792Z,987.95
2023-05-22T09:37:44.972Z,987.97
2023-05-22T09:39:00.888Z,987.91
2023-05-22T09:40:11.180Z,987.95
2023-05-22T09:41:12.294Z,987.95
2023-05-22T09:42:14.963Z,987.94
2023-05-22T09:43:35.241Z,987.92
2023-05-22T09:44:35.765Z,987.98
2023-05-22T09:45:40.166Z,987.96
2023-05-22T09:46:45.669Z,987.98
2023-05-22T09:47:56.791Z,988
2023-05-22T09:49:07.875Z,987.99
2023-05-22T09:50:11.392Z,987.93
2023-05-22T09:51:11.901Z,987.96
2023-05-22T09:52:12.173Z,987.93
2023-05-22T09:53:36.163Z,987.9
2023-05-22T09:54:41.463Z,987.91
2023-05-22T09:55:48.372Z,987.92
2023-05-22T09:56:59.921Z,987.9
2023-05-22T09:58:05.021Z,987.89
2023-05-22T09:59:37.980Z,987.9
2023-05-22T10:00:46.791Z,987.9
2023-05-22T10:01:55.360Z,987.88
2023-05-22T10:03:08.439Z,987.91
2023-05-22T10:04:46.290Z,987.88
2023-05-22T10:05:46.948Z,987.89
2023-05-22T10:07:23.237Z,987.89
2023-05-22T10:08:34.712Z,987.91
2023-05-22T10:09:39.816Z,987.86
2023-05-22T10:10:41.974Z,987.87
2023-05-22T10:11:44.503Z,987.89
2023-05-22T10:13:18.178Z,987.89
2023-05-22T10:14:58.472Z,987.89
2023-05-22T10:16:41.219Z,987.85
2023-05-22T10:18:42.965Z,987.84
2023-05-22T10:21:20.527Z,987.8
2023-05-22T10:22:31.330Z,987.8
2023-05-22T10:23:48.350Z,987.78
2023-05-22T10:26:14.203Z,987.79
2023-05-22T10:28:02.222Z,987.69
2023-05-22T10:29:40.980Z,987.69
2023-05-22T10:30:58.557Z,987.72
2023-05-22T10:32:07.439Z,987.67
2023-05-22T10:33:17.343Z,987.68
2023-05-22T10:34:47.858Z,987.67
2023-05-22T10:35:52.008Z,987.69
2023-05-22T10:37:05.993Z,987.68
2023-05-22T10:37:59.153Z,987.64
2023-05-22T10:39:29.234Z,987.7
2023-05-22T10:41:02.266Z,987.64
2023-05-22T10:42:05.793Z,987.63
2023-05-22T10:43:29.235Z,987.6
2023-05-22T10:44:34.000Z,987.56
2023-05-22T10:46:17.335Z,987.55
2023-05-22T10:47:29.970Z,987.55
2023-05-22T10:48:31.292Z,987.54
2023-05-22T10:49:33.008Z,987.51
2023-05-22T10:50:36.953Z,987.57
2023-05-22T10:51:41.107Z,987.53
2023-05-22T10:53:21.298Z,987.54
2023-05-22T10:54:22.744Z,987.51
2023-05-22T10:55:26.361Z,987.49
2023-05-22T10:56:40.475Z,987.45
2023-05-22T10:58:08.532Z,987.46
2023-05-22T10:59:09.068Z,987.5
2023-05-22T11:00:57.579Z,987.47
2023-05-22T11:04:46.981Z,987.48
2023-05-22T11:05:51.616Z,987.44
2023-05-22T11:07:08.729Z,987.45
2023-05-22T11:08:31.026Z,987.43
2023-05-22T11:09:37.180Z,987.43
2023-05-22T11:10:44.217Z,987.4
2023-05-22T11:11:45.868Z,987.39
2023-05-22T11:12:47.446Z,987.42
2023-05-22T11:15:11.806Z,987.35
2023-05-22T11:16:13.491Z,987.35
2023-05-22T11:17:39.947Z,987.33
2023-05-22T11:18:45.297Z,987.35
2023-05-22T11:19:45.223Z,987.35
2023-05-22T11:20:57.314Z,987.37
2023-05-22T11:22:06.799Z,987.37
2023-05-22T11:23:07.419Z,987.34
2023-05-22T11:24:40.860Z,987.32
2023-05-22T11:26:49.032Z,987.33
2023-05-22T11:27:56.526Z,987.33
2023-05-22T11:29:06.732Z,987.27
2023-05-22T11:30:25.584Z,987.28
2023-05-22T11:31:32.728Z,987.26
2023-05-22T11:32:51.955Z,987.24
2023-05-22T11:34:07.460Z,987.25
2023-05-22T11:35:09.781Z,987.18
2023-05-22T11:36:18.068Z,987.23
2023-05-22T11:37:38.328Z,987.24
2023-05-22T11:39:14.748Z,987.24
2023-05-22T11:40:46.327Z,987.24
2023-05-22T11:42:17.296Z,987.23
2023-05-22T11:43:21.282Z,987.16
2023-05-22T11:44:24.869Z,987.2
2023-05-22T11:45:25.500Z,987.15
2023-05-22T11:46:37.734Z,987.18
2023-05-22T11:47:39.493Z,987.17
2023-05-22T11:49:10.588Z,987.14
2023-05-22T11:50:22.528Z,987.19
2023-05-22T11:52:17.298Z,987.17
2023-05-22T11:53:20.667Z,987.14
2023-05-22T11:54:39.035Z,987.13
2023-05-22T11:56:26.727Z,987.14
2023-05-22T11:57:33.217Z,987.12
2023-05-22T11:59:05.689Z,987.12
2023-05-22T12:00:16.876Z,987.11
2023-05-22T12:01:59.242Z,987.11
2023-05-22T12:03:08.629Z,987.1
2023-05-22T12:05:03.040Z,987.12
2023-05-22T12:06:14.520Z,987.11
2023-05-22T12:07:15.845Z,987.04
2023-05-22T12:08:25.682Z,987.1
2023-05-22T12:09:28.763Z,987.07
2023-05-22T12:10:41.727Z,987.04
2023-05-22T12:11:55.315Z,987.04
2023-05-22T12:14:09.507Z,986.99
2023-05-22T12:15:30.375Z,987.01
2023-05-22T12:16:30.706Z,987.06
2023-05-22T12:17:53.339Z,987.02
2023-05-22T12:18:57.655Z,987.02
2023-05-22T12:20:59.666Z,987.04
2023-05-22T12:22:11.244Z,987.05
2023-05-22T12:23:34.614Z,987.05
2023-05-22T12:26:01.274Z,987.03
2023-05-22T12:27:02.777Z,987.03
2023-05-22T12:30:11.420Z,987.02
2023-05-22T12:32:37.493Z,986.97
2023-05-22T12:37:27.129Z,986.95
2023-05-22T12:39:28.838Z,986.87
2023-05-22T12:41:33.908Z,986.81
2023-05-22T12:47:16.083Z,986.84
2023-05-22T12:48:34.005Z,986.8
2023-05-22T12:49:41.430Z,986.81
2023-05-22T12:51:48.146Z,986.77
2023-05-22T12:58:07.358Z,986.85
2023-05-22T12:59:36.493Z,986.82
2023-05-22T13:02:06.179Z,986.84
2023-05-22T13:09:38.183Z,986.88
2023-05-22T13:13:12.329Z,986.84
2023-05-22T13:14:16.802Z,986.85
2023-05-22T13:16:11.320Z,986.77
2023-05-22T13:18:03.182Z,986.72
2023-05-22T13:19:04.227Z,986.71
2023-05-22T13:20:06.759Z,986.71
2023-05-22T13:22:21.804Z,986.74
2023-05-22T13:24:13.656Z,986.74
2023-05-22T13:27:59.106Z,986.67
2023-05-22T13:29:24.536Z,986.75
2023-05-22T13:30:25.711Z,986.71
2023-05-22T13:32:01.760Z,986.67
2023-05-22T13:34:05.292Z,986.64
2023-05-22T13:35:06.410Z,986.64
2023-05-22T13:36:07.672Z,986.61
2023-05-22T13:37:08.241Z,986.61
2023-05-22T13:39:52.219Z,986.63
2023-05-22T13:41:07.351Z,986.63
2023-05-22T13:44:32.968Z,986.6
2023-05-22T13:45:35.579Z,986.62
2023-05-22T13:47:31.825Z,986.64
2023-05-22T13:48:36.476Z,986.65
2023-05-22T13:51:14.767Z,986.66
2023-05-22T13:57:25.214Z,986.61
2023-05-22T13:59:00.458Z,986.53
2023-05-22T14:01:09.966Z,986.55
2023-05-22T14:03:23.474Z,986.55
2023-05-22T14:04:24.656Z,986.57
2023-05-22T14:05:42.527Z,986.55
2023-05-22T14:07:01.921Z,986.6
2023-05-22T14:08:42.238Z,986.53
2023-05-22T14:09:44.254Z,986.55
2023-05-22T14:11:14.089Z,986.58
2023-05-22T14:14:06.999Z,986.48
2023-05-22T14:15:36.208Z,986.42
2023-05-22T14:21:18.609Z,986.47
2023-05-22T14:22:28.079Z,986.47
2023-05-22T14:25:21.360Z,986.53
2023-05-22T14:26:23.096Z,986.54
2023-05-22T14:27:24.810Z,986.56
2023-05-22T14:28:26.557Z,986.61
2023-05-22T14:29:28.280Z,986.57
2023-05-22T14:30:30.157Z,986.61
2023-05-22T14:31:32.095Z,986.55
2023-05-22T14:32:33.511Z,986.52
2023-05-22T14:33:35.396Z,986.54
2023-05-22T14:34:36.970Z,986.51
2023-05-22T14:35:39.111Z,986.52
2023-05-22T14:36:40.439Z,986.5
2023-05-22T14:37:42.215Z,986.51
2023-05-22T14:38:43.920Z,986.47
2023-05-22T14:39:45.680Z,986.5
2023-05-22T14:40:47.393Z,986.48
2023-05-22T14:41:49.091Z,986.48
2023-05-22T14:42:53.898Z,986.44
2023-05-22T14:43:52.560Z,986.45
2023-05-22T14:44:54.329Z,986.41
2023-05-22T14:45:56.124Z,986.41
2023-05-22T14:46:57.762Z,986.45
2023-05-22T14:47:59.596Z,986.41
2023-05-22T14:49:01.231Z,986.4
2023-05-22T14:50:18.244Z,986.42
2023-05-22T14:51:04.689Z,986.4